sensor_id;sensor_type;location;lat;lon;timestamp;P1;durP1;ratioP1;P2;durP2;ratioP2
3299;SDS011;1662;49.310;8.134;2023-04-03T00:01:12;3.70;;;3.50;;
3299;SDS011;1662;49.310;8.134;2023-04-03T00:03:38;3.35;;;3.15;;
3299;SDS011;1662;49.310;8.134;2023-04-03T00:06:04;3.90;;;3.60;;
3299;SDS011;1662;49.310;8.134;2023-04-03T00:08:34;4.93;;;3.80;;
3299;SDS011;1662;49.310;8.134;2023-04-03T00:11:00;3.45;;;3.15;;
3299;SDS011;1662;49.310;8.134;2023-04-03T00:13:26;3.53;;;3.33;;
3299;SDS011;1662;49.310;8.134;2023-04-03T00:15:52;3.47;;;3.27;;
3299;SDS011;1662;49.310;8.134;2023-04-03T00:18:17;3.20;;;3.00;;
3299;SDS011;1662;49.310;8.134;2023-04-03T00:20:46;5.87;;;3.33;;
3299;SDS011;1662;49.310;8.134;2023-04-03T00:23:12;3.45;;;3.25;;
3299;SDS011;1662;49.310;8.134;2023-04-03T00:25:37;3.43;;;3.23;;
3299;SDS011;1662;49.310;8.134;2023-04-03T00:28:05;3.33;;;3.13;;
3299;SDS011;1662;49.310;8.134;2023-04-03T00:30:31;4.45;;;4.07;;
3299;SDS011;1662;49.310;8.134;2023-04-03T00:32:57;3.80;;;3.50;;
3299;SDS011;1662;49.310;8.134;2023-04-03T00:35:24;3.50;;;3.33;;
3299;SDS011;1662;49.310;8.134;2023-04-03T00:37:53;3.00;;;2.80;;
3299;SDS011;1662;49.310;8.134;2023-04-03T00:40:19;3.13;;;3.03;;
3299;SDS011;1662;49.310;8.134;2023-04-03T00:42:47;3.58;;;3.33;;
3299;SDS011;1662;49.310;8.134;2023-04-03T00:45:23;5.15;;;3.60;;
3299;SDS011;1662;49.310;8.134;2023-04-03T00:47:52;3.40;;;3.20;;
3299;SDS011;1662;49.310;8.134;2023-04-03T00:50:18;3.23;;;3.00;;
3299;SDS011;1662;49.310;8.134;2023-04-03T00:52:43;3.70;;;3.50;;
3299;SDS011;1662;49.310;8.134;2023-04-03T00:55:11;3.50;;;3.30;;
3299;SDS011;1662;49.310;8.134;2023-04-03T00:57:39;3.97;;;3.78;;
3299;SDS011;1662;49.310;8.134;2023-04-03T01:00:09;3.67;;;3.58;;
3299;SDS011;1662;49.310;8.134;2023-04-03T01:02:39;3.53;;;3.28;;
3299;SDS011;1662;49.310;8.134;2023-04-03T01:05:07;4.65;;;4.20;;
3299;SDS011;1662;49.310;8.134;2023-04-03T01:07:34;4.03;;;3.72;;
3299;SDS011;1662;49.310;8.134;2023-04-03T01:10:05;3.85;;;3.53;;
3299;SDS011;1662;49.310;8.134;2023-04-03T01:12:34;3.80;;;3.60;;
3299;SDS011;1662;49.310;8.134;2023-04-03T01:15:07;3.78;;;3.58;;
3299;SDS011;1662;49.310;8.134;2023-04-03T01:17:44;3.75;;;3.45;;
3299;SDS011;1662;49.310;8.134;2023-04-03T01:23:18;3.95;;;3.65;;
3299;SDS011;1662;49.310;8.134;2023-04-03T01:25:58;3.65;;;3.47;;
3299;SDS011;1662;49.310;8.134;2023-04-03T01:28:25;3.77;;;3.57;;
3299;SDS011;1662;49.310;8.134;2023-04-03T01:33:28;3.35;;;3.05;;
3299;SDS011;1662;49.310;8.134;2023-04-03T01:35:54;3.55;;;3.35;;
3299;SDS011;1662;49.310;8.134;2023-04-03T01:38:20;3.60;;;3.40;;
3299;SDS011;1662;49.310;8.134;2023-04-03T01:40:45;4.23;;;3.80;;
3299;SDS011;1662;49.310;8.134;2023-04-03T01:43:11;3.97;;;3.60;;
3299;SDS011;1662;49.310;8.134;2023-04-03T01:45:37;3.80;;;3.50;;
3299;SDS011;1662;49.310;8.134;2023-04-03T01:48:03;4.40;;;4.10;;
3299;SDS011;1662;49.310;8.134;2023-04-03T01:50:29;3.78;;;3.58;;
3299;SDS011;1662;49.310;8.134;2023-04-03T01:52:55;3.67;;;3.47;;
3299;SDS011;1662;49.310;8.134;2023-04-03T01:55:20;3.20;;;3.00;;
3299;SDS011;1662;49.310;8.134;2023-04-03T01:57:46;5.33;;;3.63;;
3299;SDS011;1662;49.310;8.134;2023-04-03T02:00:11;3.07;;;2.87;;
3299;SDS011;1662;49.310;8.134;2023-04-03T02:02:38;3.97;;;3.78;;
3299;SDS011;1662;49.310;8.134;2023-04-03T02:05:04;3.92;;;3.65;;
3299;SDS011;1662;49.310;8.134;2023-04-03T02:07:30;4.53;;;4.20;;
3299;SDS011;1662;49.310;8.134;2023-04-03T02:09:55;3.83;;;3.63;;
3299;SDS011;1662;49.310;8.134;2023-04-03T02:12:21;3.63;;;3.40;;
3299;SDS011;1662;49.310;8.134;2023-04-03T02:14:46;3.87;;;3.70;;
3299;SDS011;1662;49.310;8.134;2023-04-03T02:17:14;5.00;;;4.70;;
3299;SDS011;1662;49.310;8.134;2023-04-03T02:19:40;4.03;;;3.80;;
3299;SDS011;1662;49.310;8.134;2023-04-03T02:22:06;3.70;;;3.50;;
3299;SDS011;1662;49.310;8.134;2023-04-03T02:24:31;4.03;;;3.80;;
3299;SDS011;1662;49.310;8.134;2023-04-03T02:27:00;5.28;;;4.80;;
3299;SDS011;1662;49.310;8.134;2023-04-03T02:29:25;3.93;;;3.73;;
3299;SDS011;1662;49.310;8.134;2023-04-03T02:31:51;3.60;;;3.50;;
3299;SDS011;1662;49.310;8.134;2023-04-03T02:34:16;4.33;;;4.13;;
3299;SDS011;1662;49.310;8.134;2023-04-03T02:36:42;4.13;;;3.93;;
3299;SDS011;1662;49.310;8.134;2023-04-03T02:39:08;4.20;;;4.00;;
3299;SDS011;1662;49.310;8.134;2023-04-03T02:41:36;4.40;;;4.00;;
3299;SDS011;1662;49.310;8.134;2023-04-03T02:44:02;4.45;;;4.15;;
3299;SDS011;1662;49.310;8.134;2023-04-03T02:46:29;4.20;;;3.90;;
3299;SDS011;1662;49.310;8.134;2023-04-03T02:48:55;5.27;;;4.87;;
3299;SDS011;1662;49.310;8.134;2023-04-03T02:51:20;5.20;;;4.70;;
3299;SDS011;1662;49.310;8.134;2023-04-03T02:53:47;4.75;;;4.35;;
3299;SDS011;1662;49.310;8.134;2023-04-03T02:56:13;4.33;;;4.03;;
3299;SDS011;1662;49.310;8.134;2023-04-03T02:58:39;3.50;;;3.30;;
3299;SDS011;1662;49.310;8.134;2023-04-03T03:01:05;4.20;;;3.90;;
3299;SDS011;1662;49.310;8.134;2023-04-03T03:03:31;4.93;;;4.27;;
3299;SDS011;1662;49.310;8.134;2023-04-03T03:08:31;6.15;;;4.32;;
3299;SDS011;1662;49.310;8.134;2023-04-03T03:10:59;5.07;;;4.78;;
3299;SDS011;1662;49.310;8.134;2023-04-03T03:13:25;3.70;;;3.50;;
3299;SDS011;1662;49.310;8.134;2023-04-03T03:15:50;3.97;;;3.77;;
3299;SDS011;1662;49.310;8.134;2023-04-03T03:18:17;4.28;;;4.07;;
3299;SDS011;1662;49.310;8.134;2023-04-03T03:20:42;4.10;;;3.80;;
3299;SDS011;1662;49.310;8.134;2023-04-03T03:23:08;4.30;;;4.00;;
3299;SDS011;1662;49.310;8.134;2023-04-03T03:25:41;6.68;;;4.25;;
3299;SDS011;1662;49.310;8.134;2023-04-03T03:28:06;4.30;;;3.67;;
3299;SDS011;1662;49.310;8.134;2023-04-03T03:30:32;3.70;;;3.50;;
3299;SDS011;1662;49.310;8.134;2023-04-03T03:32:58;3.92;;;3.70;;
3299;SDS011;1662;49.310;8.134;2023-04-03T03:35:24;4.23;;;4.00;;
3299;SDS011;1662;49.310;8.134;2023-04-03T03:37:50;4.10;;;3.80;;
3299;SDS011;1662;49.310;8.134;2023-04-03T03:40:16;4.83;;;4.40;;
3299;SDS011;1662;49.310;8.134;2023-04-03T03:42:42;5.00;;;4.70;;
3299;SDS011;1662;49.310;8.134;2023-04-03T03:45:07;4.23;;;3.87;;
3299;SDS011;1662;49.310;8.134;2023-04-03T03:47:34;4.85;;;4.45;;
3299;SDS011;1662;49.310;8.134;2023-04-03T03:49:59;4.23;;;3.57;;
3299;SDS011;1662;49.310;8.134;2023-04-03T03:52:25;4.57;;;4.25;;
3299;SDS011;1662;49.310;8.134;2023-04-03T03:54:51;4.00;;;3.80;;
3299;SDS011;1662;49.310;8.134;2023-04-03T03:57:17;4.10;;;3.90;;
3299;SDS011;1662;49.310;8.134;2023-04-03T03:59:43;4.57;;;4.17;;
3299;SDS011;1662;49.310;8.134;2023-04-03T04:02:09;4.47;;;4.00;;
3299;SDS011;1662;49.310;8.134;2023-04-03T04:04:35;5.13;;;4.63;;
3299;SDS011;1662;49.310;8.134;2023-04-03T04:07:01;4.40;;;4.10;;
3299;SDS011;1662;49.310;8.134;2023-04-03T04:09:28;4.05;;;3.75;;
3299;SDS011;1662;49.310;8.134;2023-04-03T04:11:53;4.80;;;4.40;;
3299;SDS011;1662;49.310;8.134;2023-04-03T04:14:19;3.87;;;3.67;;
3299;SDS011;1662;49.310;8.134;2023-04-03T04:16:45;3.90;;;3.60;;
3299;SDS011;1662;49.310;8.134;2023-04-03T04:19:12;4.10;;;3.78;;
3299;SDS011;1662;49.310;8.134;2023-04-03T04:21:38;4.55;;;4.18;;
3299;SDS011;1662;49.310;8.134;2023-04-03T04:24:04;5.22;;;3.78;;
3299;SDS011;1662;49.310;8.134;2023-04-03T04:26:30;4.45;;;4.15;;
3299;SDS011;1662;49.310;8.134;2023-04-03T04:28:56;4.57;;;4.27;;
3299;SDS011;1662;49.310;8.134;2023-04-03T04:31:22;4.37;;;3.97;;
3299;SDS011;1662;49.310;8.134;2023-04-03T04:33:47;4.50;;;4.20;;
3299;SDS011;1662;49.310;8.134;2023-04-03T04:36:13;3.90;;;3.80;;
3299;SDS011;1662;49.310;8.134;2023-04-03T04:38:39;4.40;;;4.00;;
3299;SDS011;1662;49.310;8.134;2023-04-03T04:41:05;3.63;;;3.30;;
3299;SDS011;1662;49.310;8.134;2023-04-03T04:43:31;4.27;;;3.97;;
3299;SDS011;1662;49.310;8.134;2023-04-03T04:46:04;5.60;;;4.70;;
3299;SDS011;1662;49.310;8.134;2023-04-03T04:48:34;4.75;;;4.30;;
3299;SDS011;1662;49.310;8.134;2023-04-03T04:51:00;4.15;;;3.80;;
3299;SDS011;1662;49.310;8.134;2023-04-03T04:53:26;4.95;;;4.47;;
3299;SDS011;1662;49.310;8.134;2023-04-03T04:55:52;3.93;;;3.50;;
3299;SDS011;1662;49.310;8.134;2023-04-03T04:58:18;3.80;;;3.60;;
3299;SDS011;1662;49.310;8.134;2023-04-03T05:00:44;3.57;;;3.33;;
3299;SDS011;1662;49.310;8.134;2023-04-03T05:03:09;3.50;;;3.30;;
3299;SDS011;1662;49.310;8.134;2023-04-03T05:05:35;5.77;;;4.67;;
3299;SDS011;1662;49.310;8.134;2023-04-03T05:08:01;6.93;;;4.40;;
3299;SDS011;1662;49.310;8.134;2023-04-03T05:10:27;4.70;;;4.40;;
3299;SDS011;1662;49.310;8.134;2023-04-03T05:12:53;4.72;;;4.20;;
3299;SDS011;1662;49.310;8.134;2023-04-03T05:15:19;3.70;;;3.50;;
3299;SDS011;1662;49.310;8.134;2023-04-03T05:17:45;4.33;;;4.03;;
3299;SDS011;1662;49.310;8.134;2023-04-03T05:20:11;4.70;;;4.40;;
3299;SDS011;1662;49.310;8.134;2023-04-03T05:22:37;4.30;;;3.90;;
3299;SDS011;1662;49.310;8.134;2023-04-03T05:25:03;4.28;;;3.83;;
3299;SDS011;1662;49.310;8.134;2023-04-03T05:27:30;4.72;;;4.38;;
3299;SDS011;1662;49.310;8.134;2023-04-03T05:29:56;4.90;;;3.30;;
3299;SDS011;1662;49.310;8.134;2023-04-03T05:32:23;5.78;;;4.45;;
3299;SDS011;1662;49.310;8.134;2023-04-03T05:34:51;4.28;;;3.88;;
3299;SDS011;1662;49.310;8.134;2023-04-03T05:37:16;4.93;;;4.43;;
3299;SDS011;1662;49.310;8.134;2023-04-03T05:39:42;5.60;;;4.80;;
3299;SDS011;1662;49.310;8.134;2023-04-03T05:42:08;4.43;;;4.00;;
3299;SDS011;1662;49.310;8.134;2023-04-03T05:44:33;3.70;;;3.50;;
3299;SDS011;1662;49.310;8.134;2023-04-03T05:47:00;5.10;;;4.20;;
3299;SDS011;1662;49.310;8.134;2023-04-03T05:49:26;4.45;;;4.05;;
3299;SDS011;1662;49.310;8.134;2023-04-03T05:51:51;5.80;;;5.40;;
3299;SDS011;1662;49.310;8.134;2023-04-03T05:54:18;4.33;;;4.13;;
3299;SDS011;1662;49.310;8.134;2023-04-03T05:56:48;4.32;;;4.00;;
3299;SDS011;1662;49.310;8.134;2023-04-03T05:59:15;6.07;;;5.28;;
3299;SDS011;1662;49.310;8.134;2023-04-03T06:01:41;5.43;;;4.93;;
3299;SDS011;1662;49.310;8.134;2023-04-03T06:04:06;5.37;;;5.00;;
3299;SDS011;1662;49.310;8.134;2023-04-03T06:09:24;5.85;;;5.20;;
3299;SDS011;1662;49.310;8.134;2023-04-03T06:11:54;4.97;;;4.57;;
3299;SDS011;1662;49.310;8.134;2023-04-03T06:14:24;4.65;;;4.35;;
3299;SDS011;1662;49.310;8.134;2023-04-03T06:16:51;4.45;;;4.25;;
3299;SDS011;1662;49.310;8.134;2023-04-03T06:19:17;6.55;;;5.07;;
3299;SDS011;1662;49.310;8.134;2023-04-03T06:21:43;5.68;;;5.18;;
3299;SDS011;1662;49.310;8.134;2023-04-03T06:24:09;6.97;;;6.27;;
3299;SDS011;1662;49.310;8.134;2023-04-03T06:26:41;6.13;;;5.53;;
3299;SDS011;1662;49.310;8.134;2023-04-03T06:29:07;5.78;;;5.20;;
3299;SDS011;1662;49.310;8.134;2023-04-03T06:31:33;7.25;;;6.55;;
3299;SDS011;1662;49.310;8.134;2023-04-03T06:34:04;4.60;;;4.20;;
3299;SDS011;1662;49.310;8.134;2023-04-03T06:36:32;4.70;;;4.40;;
3299;SDS011;1662;49.310;8.134;2023-04-03T06:38:58;5.93;;;5.43;;
3299;SDS011;1662;49.310;8.134;2023-04-03T06:41:23;4.43;;;4.03;;
3299;SDS011;1662;49.310;8.134;2023-04-03T06:43:51;5.00;;;4.70;;
3299;SDS011;1662;49.310;8.134;2023-04-03T06:46:17;4.83;;;4.43;;
3299;SDS011;1662;49.310;8.134;2023-04-03T06:48:47;4.10;;;3.80;;
3299;SDS011;1662;49.310;8.134;2023-04-03T06:51:16;5.20;;;4.80;;
3299;SDS011;1662;49.310;8.134;2023-04-03T06:53:52;5.30;;;4.90;;
3299;SDS011;1662;49.310;8.134;2023-04-03T06:56:20;4.97;;;4.47;;
3299;SDS011;1662;49.310;8.134;2023-04-03T06:58:46;5.57;;;5.07;;
3299;SDS011;1662;49.310;8.134;2023-04-03T07:01:13;7.73;;;5.60;;
3299;SDS011;1662;49.310;8.134;2023-04-03T07:03:41;4.60;;;4.30;;
3299;SDS011;1662;49.310;8.134;2023-04-03T07:06:12;5.22;;;4.78;;
3299;SDS011;1662;49.310;8.134;2023-04-03T07:08:39;6.90;;;6.15;;
3299;SDS011;1662;49.310;8.134;2023-04-03T07:11:05;5.18;;;4.68;;
3299;SDS011;1662;49.310;8.134;2023-04-03T07:13:31;6.97;;;5.63;;
3299;SDS011;1662;49.310;8.134;2023-04-03T07:15:57;6.22;;;5.63;;
3299;SDS011;1662;49.310;8.134;2023-04-03T07:18:23;5.53;;;5.10;;
3299;SDS011;1662;49.310;8.134;2023-04-03T07:20:49;4.88;;;4.55;;
3299;SDS011;1662;49.310;8.134;2023-04-03T07:23:15;11.00;;;5.97;;
3299;SDS011;1662;49.310;8.134;2023-04-03T07:25:44;5.85;;;3.95;;
3299;SDS011;1662;49.310;8.134;2023-04-03T07:28:14;4.53;;;4.18;;
3299;SDS011;1662;49.310;8.134;2023-04-03T07:30:44;5.13;;;4.72;;
3299;SDS011;1662;49.310;8.134;2023-04-03T07:33:11;5.60;;;5.07;;
3299;SDS011;1662;49.310;8.134;2023-04-03T07:35:38;7.53;;;6.45;;
3299;SDS011;1662;49.310;8.134;2023-04-03T07:38:04;7.93;;;6.93;;
3299;SDS011;1662;49.310;8.134;2023-04-03T07:40:30;6.60;;;5.35;;
3299;SDS011;1662;49.310;8.134;2023-04-03T07:42:56;6.20;;;5.80;;
3299;SDS011;1662;49.310;8.134;2023-04-03T07:45:22;8.73;;;5.97;;
3299;SDS011;1662;49.310;8.134;2023-04-03T07:47:47;7.13;;;5.60;;
3299;SDS011;1662;49.310;8.134;2023-04-03T07:50:13;9.20;;;5.20;;
3299;SDS011;1662;49.310;8.134;2023-04-03T07:52:39;4.70;;;4.37;;
3299;SDS011;1662;49.310;8.134;2023-04-03T07:55:05;13.33;;;6.17;;
3299;SDS011;1662;49.310;8.134;2023-04-03T07:57:34;7.32;;;6.63;;
3299;SDS011;1662;49.310;8.134;2023-04-03T08:00:00;5.70;;;5.27;;
3299;SDS011;1662;49.310;8.134;2023-04-03T08:02:26;10.70;;;6.88;;
3299;SDS011;1662;49.310;8.134;2023-04-03T08:04:52;6.57;;;5.90;;
3299;SDS011;1662;49.310;8.134;2023-04-03T08:07:18;6.10;;;5.50;;
3299;SDS011;1662;49.310;8.134;2023-04-03T08:09:43;6.43;;;5.93;;
3299;SDS011;1662;49.310;8.134;2023-04-03T08:12:10;6.30;;;5.80;;
3299;SDS011;1662;49.310;8.134;2023-04-03T08:14:36;8.10;;;5.78;;
3299;SDS011;1662;49.310;8.134;2023-04-03T08:17:02;5.40;;;5.00;;
3299;SDS011;1662;49.310;8.134;2023-04-03T08:19:29;6.15;;;5.50;;
3299;SDS011;1662;49.310;8.134;2023-04-03T08:21:55;6.73;;;6.07;;
3299;SDS011;1662;49.310;8.134;2023-04-03T08:24:23;5.85;;;5.32;;
3299;SDS011;1662;49.310;8.134;2023-04-03T08:26:49;6.38;;;5.75;;
3299;SDS011;1662;49.310;8.134;2023-04-03T08:29:15;8.50;;;5.10;;
3299;SDS011;1662;49.310;8.134;2023-04-03T08:31:41;6.40;;;5.80;;
3299;SDS011;1662;49.310;8.134;2023-04-03T08:34:06;5.57;;;5.17;;
3299;SDS011;1662;49.310;8.134;2023-04-03T08:36:34;8.93;;;6.03;;
3299;SDS011;1662;49.310;8.134;2023-04-03T08:39:00;6.40;;;5.83;;
3299;SDS011;1662;49.310;8.134;2023-04-03T08:49:56;5.37;;;4.90;;
3299;SDS011;1662;49.310;8.134;2023-04-03T08:55:03;4.77;;;4.37;;
3299;SDS011;1662;49.310;8.134;2023-04-03T08:57:38;5.93;;;3.40;;
3299;SDS011;1662;49.310;8.134;2023-04-03T09:00:17;3.58;;;3.35;;
3299;SDS011;1662;49.310;8.134;2023-04-03T09:02:51;3.27;;;3.17;;
3299;SDS011;1662;49.310;8.134;2023-04-03T09:05:32;4.07;;;3.77;;
3299;SDS011;1662;49.310;8.134;2023-04-03T09:08:37;3.40;;;3.20;;
3299;SDS011;1662;49.310;8.134;2023-04-03T09:16:27;3.80;;;3.50;;
3299;SDS011;1662;49.310;8.134;2023-04-03T09:19:49;3.93;;;3.33;;
3299;SDS011;1662;49.310;8.134;2023-04-03T09:22:09;5.10;;;3.23;;
3299;SDS011;1662;49.310;8.134;2023-04-03T09:25:10;4.33;;;3.97;;
3299;SDS011;1662;49.310;8.134;2023-04-03T09:27:53;3.30;;;3.10;;
3299;SDS011;1662;49.310;8.134;2023-04-03T09:30:20;3.73;;;3.30;;
3299;SDS011;1662;49.310;8.134;2023-04-03T09:32:49;3.03;;;2.93;;
3299;SDS011;1662;49.310;8.134;2023-04-03T09:37:52;3.47;;;3.23;;
3299;SDS011;1662;49.310;8.134;2023-04-03T09:42:55;4.00;;;3.60;;
3299;SDS011;1662;49.310;8.134;2023-04-03T09:45:33;3.37;;;3.17;;
3299;SDS011;1662;49.310;8.134;2023-04-03T09:50:38;3.97;;;3.63;;
3299;SDS011;1662;49.310;8.134;2023-04-03T09:53:39;5.43;;;3.57;;
3299;SDS011;1662;49.310;8.134;2023-04-03T09:58:42;4.00;;;3.10;;
3299;SDS011;1662;49.310;8.134;2023-04-03T10:01:21;3.53;;;3.37;;
3299;SDS011;1662;49.310;8.134;2023-04-03T10:06:44;3.53;;;3.30;;
3299;SDS011;1662;49.310;8.134;2023-04-03T10:09:24;3.30;;;3.20;;
3299;SDS011;1662;49.310;8.134;2023-04-03T10:14:25;4.03;;;3.73;;
3299;SDS011;1662;49.310;8.134;2023-04-03T10:26:01;3.70;;;3.60;;
3299;SDS011;1662;49.310;8.134;2023-04-03T10:28:53;4.13;;;3.83;;
3299;SDS011;1662;49.310;8.134;2023-04-03T10:31:25;4.37;;;3.97;;
3299;SDS011;1662;49.310;8.134;2023-04-03T10:39:33;5.47;;;4.97;;
3299;SDS011;1662;49.310;8.134;2023-04-03T10:44:56;3.90;;;3.70;;
3299;SDS011;1662;49.310;8.134;2023-04-03T10:48:07;4.00;;;3.77;;
3299;SDS011;1662;49.310;8.134;2023-04-03T10:50:47;4.20;;;3.90;;
3299;SDS011;1662;49.310;8.134;2023-04-03T10:58:36;4.30;;;4.10;;
3299;SDS011;1662;49.310;8.134;2023-04-03T11:01:08;4.80;;;4.50;;
3299;SDS011;1662;49.310;8.134;2023-04-03T11:03:38;4.60;;;4.20;;
3299;SDS011;1662;49.310;8.134;2023-04-03T11:06:15;3.83;;;3.53;;
3299;SDS011;1662;49.310;8.134;2023-04-03T11:08:46;4.07;;;3.77;;
3299;SDS011;1662;49.310;8.134;2023-04-03T11:11:29;4.27;;;4.17;;
3299;SDS011;1662;49.310;8.134;2023-04-03T11:14:00;4.37;;;4.17;;
3299;SDS011;1662;49.310;8.134;2023-04-03T11:16:29;4.20;;;4.00;;
3299;SDS011;1662;49.310;8.134;2023-04-03T11:21:37;5.83;;;4.33;;
3299;SDS011;1662;49.310;8.134;2023-04-03T11:24:09;5.33;;;4.70;;
3299;SDS011;1662;49.310;8.134;2023-04-03T11:26:41;4.90;;;4.07;;
3299;SDS011;1662;49.310;8.134;2023-04-03T11:29:14;4.27;;;4.00;;
3299;SDS011;1662;49.310;8.134;2023-04-03T11:34:42;4.30;;;3.77;;
3299;SDS011;1662;49.310;8.134;2023-04-03T11:37:12;4.33;;;4.03;;
3299;SDS011;1662;49.310;8.134;2023-04-03T11:39:53;3.97;;;3.77;;
3299;SDS011;1662;49.310;8.134;2023-04-03T11:47:52;4.80;;;4.40;;
3299;SDS011;1662;49.310;8.134;2023-04-03T12:13:34;8.33;;;4.97;;
3299;SDS011;1662;49.310;8.134;2023-04-03T12:29:59;7.00;;;6.50;;
3299;SDS011;1662;49.310;8.134;2023-04-03T12:32:34;6.70;;;6.30;;
3299;SDS011;1662;49.310;8.134;2023-04-03T12:43:58;5.37;;;5.10;;
3299;SDS011;1662;49.310;8.134;2023-04-03T12:46:26;7.03;;;6.63;;
3299;SDS011;1662;49.310;8.134;2023-04-03T12:49:13;6.83;;;6.33;;
3299;SDS011;1662;49.310;8.134;2023-04-03T12:51:55;6.90;;;6.40;;
3299;SDS011;1662;49.310;8.134;2023-04-03T12:54:30;7.93;;;7.20;;
3299;SDS011;1662;49.310;8.134;2023-04-03T12:59:42;6.87;;;6.27;;
3299;SDS011;1662;49.310;8.134;2023-04-03T13:02:31;9.87;;;8.80;;
3299;SDS011;1662;49.310;8.134;2023-04-03T13:04:59;8.37;;;7.57;;
3299;SDS011;1662;49.310;8.134;2023-04-03T13:07:40;9.50;;;8.77;;
3299;SDS011;1662;49.310;8.134;2023-04-03T13:12:55;6.00;;;5.70;;
3299;SDS011;1662;49.310;8.134;2023-04-03T13:15:39;8.77;;;7.97;;
3299;SDS011;1662;49.310;8.134;2023-04-03T13:20:52;6.60;;;6.20;;
3299;SDS011;1662;49.310;8.134;2023-04-03T13:23:21;6.70;;;6.30;;
3299;SDS011;1662;49.310;8.134;2023-04-03T13:25:48;4.90;;;4.80;;
3299;SDS011;1662;49.310;8.134;2023-04-03T13:28:18;5.60;;;5.40;;
3299;SDS011;1662;49.310;8.134;2023-04-03T13:30:57;6.00;;;5.70;;
3299;SDS011;1662;49.310;8.134;2023-04-03T13:33:28;5.80;;;5.50;;
3299;SDS011;1662;49.310;8.134;2023-04-03T13:36:07;6.80;;;6.40;;
3299;SDS011;1662;49.310;8.134;2023-04-03T13:38:44;10.13;;;9.17;;
3299;SDS011;1662;49.310;8.134;2023-04-03T13:41:29;7.53;;;7.13;;
3299;SDS011;1662;49.310;8.134;2023-04-03T13:46:51;11.13;;;10.13;;
3299;SDS011;1662;49.310;8.134;2023-04-03T13:49:22;8.90;;;8.20;;
3299;SDS011;1662;49.310;8.134;2023-04-03T13:51:58;14.70;;;13.33;;
3299;SDS011;1662;49.310;8.134;2023-04-03T13:54:32;8.43;;;7.83;;
3299;SDS011;1662;49.310;8.134;2023-04-03T13:57:02;9.63;;;9.13;;
3299;SDS011;1662;49.310;8.134;2023-04-03T13:59:36;9.40;;;8.80;;
3299;SDS011;1662;49.310;8.134;2023-04-03T14:04:30;8.67;;;8.20;;
3299;SDS011;1662;49.310;8.134;2023-04-03T14:06:57;8.17;;;7.70;;
3299;SDS011;1662;49.310;8.134;2023-04-03T14:09:24;7.20;;;6.80;;
3299;SDS011;1662;49.310;8.134;2023-04-03T14:11:55;6.97;;;6.70;;
3299;SDS011;1662;49.310;8.134;2023-04-03T14:14:29;7.10;;;6.77;;
3299;SDS011;1662;49.310;8.134;2023-04-03T14:16:58;7.33;;;7.00;;
3299;SDS011;1662;49.310;8.134;2023-04-03T14:21:53;7.40;;;7.10;;
3299;SDS011;1662;49.310;8.134;2023-04-03T14:24:20;6.87;;;6.57;;
3299;SDS011;1662;49.310;8.134;2023-04-03T14:26:47;7.57;;;6.90;;
3299;SDS011;1662;49.310;8.134;2023-04-03T14:29:13;6.80;;;6.50;;
3299;SDS011;1662;49.310;8.134;2023-04-03T14:31:40;6.47;;;6.23;;
3299;SDS011;1662;49.310;8.134;2023-04-03T14:34:08;7.00;;;6.50;;
3299;SDS011;1662;49.310;8.134;2023-04-03T14:36:38;6.80;;;6.40;;
3299;SDS011;1662;49.310;8.134;2023-04-03T14:39:07;6.80;;;6.50;;
3299;SDS011;1662;49.310;8.134;2023-04-03T14:41:35;7.13;;;6.83;;
3299;SDS011;1662;49.310;8.134;2023-04-03T14:44:01;6.53;;;6.33;;
3299;SDS011;1662;49.310;8.134;2023-04-03T14:46:38;6.93;;;6.37;;
3299;SDS011;1662;49.310;8.134;2023-04-03T14:49:14;6.40;;;6.20;;
3299;SDS011;1662;49.310;8.134;2023-04-03T14:51:42;6.10;;;5.90;;
3299;SDS011;1662;49.310;8.134;2023-04-03T14:54:18;6.57;;;6.27;;
3299;SDS011;1662;49.310;8.134;2023-04-03T14:56:50;7.30;;;6.67;;
3299;SDS011;1662;49.310;8.134;2023-04-03T14:59:17;6.00;;;5.80;;
3299;SDS011;1662;49.310;8.134;2023-04-03T15:01:45;7.13;;;6.73;;
3299;SDS011;1662;49.310;8.134;2023-04-03T15:04:12;7.17;;;6.87;;
3299;SDS011;1662;49.310;8.134;2023-04-03T15:06:42;7.17;;;6.77;;
3299;SDS011;1662;49.310;8.134;2023-04-03T15:09:14;7.17;;;6.87;;
3299;SDS011;1662;49.310;8.134;2023-04-03T15:11:48;7.00;;;6.70;;
3299;SDS011;1662;49.310;8.134;2023-04-03T15:14:15;6.90;;;6.60;;
3299;SDS011;1662;49.310;8.134;2023-04-03T15:16:43;7.60;;;7.30;;
3299;SDS011;1662;49.310;8.134;2023-04-03T15:19:10;7.07;;;6.80;;
3299;SDS011;1662;49.310;8.134;2023-04-03T15:21:36;7.03;;;6.73;;
3299;SDS011;1662;49.310;8.134;2023-04-03T15:24:03;7.00;;;6.70;;
3299;SDS011;1662;49.310;8.134;2023-04-03T15:26:29;7.03;;;6.83;;
3299;SDS011;1662;49.310;8.134;2023-04-03T15:28:55;7.60;;;7.40;;
3299;SDS011;1662;49.310;8.134;2023-04-03T15:31:20;7.73;;;7.20;;
3299;SDS011;1662;49.310;8.134;2023-04-03T15:33:46;7.87;;;7.57;;
3299;SDS011;1662;49.310;8.134;2023-04-03T15:36:12;14.07;;;12.80;;
3299;SDS011;1662;49.310;8.134;2023-04-03T15:38:37;15.60;;;14.30;;
3299;SDS011;1662;49.310;8.134;2023-04-03T15:41:03;12.80;;;11.90;;
3299;SDS011;1662;49.310;8.134;2023-04-03T15:43:32;15.20;;;13.90;;
3299;SDS011;1662;49.310;8.134;2023-04-03T15:45:59;15.37;;;13.70;;
3299;SDS011;1662;49.310;8.134;2023-04-03T15:48:26;15.10;;;14.00;;
3299;SDS011;1662;49.310;8.134;2023-04-03T15:50:52;9.23;;;8.83;;
3299;SDS011;1662;49.310;8.134;2023-04-03T15:53:19;11.20;;;10.40;;
3299;SDS011;1662;49.310;8.134;2023-04-03T15:55:44;11.23;;;10.53;;
3299;SDS011;1662;49.310;8.134;2023-04-03T15:58:10;10.33;;;9.83;;
3299;SDS011;1662;49.310;8.134;2023-04-03T16:00:36;9.73;;;9.23;;
3299;SDS011;1662;49.310;8.134;2023-04-03T16:03:07;10.17;;;9.57;;
3299;SDS011;1662;49.310;8.134;2023-04-03T16:05:36;10.43;;;9.77;;
3299;SDS011;1662;49.310;8.134;2023-04-03T16:08:03;10.30;;;9.60;;
3299;SDS011;1662;49.310;8.134;2023-04-03T16:10:30;10.00;;;9.40;;
3299;SDS011;1662;49.310;8.134;2023-04-03T16:12:56;12.00;;;11.10;;
3299;SDS011;1662;49.310;8.134;2023-04-03T16:15:22;10.83;;;9.93;;
3299;SDS011;1662;49.310;8.134;2023-04-03T16:17:49;8.50;;;8.10;;
3299;SDS011;1662;49.310;8.134;2023-04-03T16:20:15;10.80;;;9.97;;
3299;SDS011;1662;49.310;8.134;2023-04-03T16:22:41;10.23;;;9.63;;
3299;SDS011;1662;49.310;8.134;2023-04-03T16:25:07;7.30;;;7.10;;
3299;SDS011;1662;49.310;8.134;2023-04-03T16:27:34;9.27;;;8.77;;
3299;SDS011;1662;49.310;8.134;2023-04-03T16:30:00;8.80;;;8.20;;
3299;SDS011;1662;49.310;8.134;2023-04-03T16:32:27;8.87;;;8.47;;
3299;SDS011;1662;49.310;8.134;2023-04-03T16:34:55;7.13;;;6.93;;
3299;SDS011;1662;49.310;8.134;2023-04-03T16:37:21;8.40;;;7.70;;
3299;SDS011;1662;49.310;8.134;2023-04-03T16:39:47;8.53;;;8.03;;
3299;SDS011;1662;49.310;8.134;2023-04-03T16:42:12;8.53;;;8.13;;
3299;SDS011;1662;49.310;8.134;2023-04-03T16:44:38;7.73;;;7.33;;
3299;SDS011;1662;49.310;8.134;2023-04-03T16:47:04;8.10;;;7.80;;
3299;SDS011;1662;49.310;8.134;2023-04-03T16:49:31;7.50;;;7.10;;
3299;SDS011;1662;49.310;8.134;2023-04-03T16:52:00;8.37;;;7.77;;
3299;SDS011;1662;49.310;8.134;2023-04-03T16:54:28;7.77;;;7.37;;
3299;SDS011;1662;49.310;8.134;2023-04-03T16:56:55;7.03;;;6.83;;
3299;SDS011;1662;49.310;8.134;2023-04-03T16:59:23;7.93;;;7.60;;
3299;SDS011;1662;49.310;8.134;2023-04-03T17:01:49;7.27;;;6.97;;
3299;SDS011;1662;49.310;8.134;2023-04-03T17:04:17;7.20;;;7.00;;
3299;SDS011;1662;49.310;8.134;2023-04-03T17:06:42;7.40;;;7.07;;
3299;SDS011;1662;49.310;8.134;2023-04-03T17:09:10;7.10;;;6.80;;
3299;SDS011;1662;49.310;8.134;2023-04-03T17:11:37;6.90;;;6.70;;
3299;SDS011;1662;49.310;8.134;2023-04-03T17:14:03;6.70;;;6.50;;
3299;SDS011;1662;49.310;8.134;2023-04-03T17:16:29;6.97;;;6.53;;
3299;SDS011;1662;49.310;8.134;2023-04-03T17:18:57;6.73;;;6.50;;
3299;SDS011;1662;49.310;8.134;2023-04-03T17:21:23;6.60;;;6.40;;
3299;SDS011;1662;49.310;8.134;2023-04-03T17:23:50;7.10;;;6.77;;
3299;SDS011;1662;49.310;8.134;2023-04-03T17:26:22;6.90;;;6.50;;
3299;SDS011;1662;49.310;8.134;2023-04-03T17:28:48;6.20;;;6.00;;
3299;SDS011;1662;49.310;8.134;2023-04-03T17:31:14;6.60;;;6.30;;
3299;SDS011;1662;49.310;8.134;2023-04-03T17:33:40;6.67;;;6.27;;
3299;SDS011;1662;49.310;8.134;2023-04-03T17:36:05;6.70;;;6.50;;
3299;SDS011;1662;49.310;8.134;2023-04-03T17:38:32;6.97;;;6.67;;
3299;SDS011;1662;49.310;8.134;2023-04-03T17:40:58;6.40;;;6.10;;
3299;SDS011;1662;49.310;8.134;2023-04-03T17:43:26;6.40;;;6.10;;